D55

Robertson Field Airport

Langdon, North Dakota, USA
METAR KD55 181115Z AUTO 23012KT 10SM CLR 03/03 A3005 RMK AO2
Observed Flight Rules
Oct-18 @ 11:15 UTC (15 minutes ago) Visual Flight Rules
Wind Visibility Clouds
230° at 12 knots 10 miles
  • Clear skies
Temperatures Readings
Current 3°C / 37°F
Dewpoint 3°C / 37°F
Humidity 100%
Altimeter 30.05" Hg
Pressure 1018 hPa
Elevation 491
METAR KD55 181115Z AUTO 23012KT 10SM CLR 03/03 A3005 RMK AO2
Observed Flight Rules
Oct-18 @ 11:15 UTC
(15 minutes ago)
VFR
Wind Visibility
230° at 12 knots 10 miles
Clouds
  • Clear skies
Temperature Dewpoint
3°C / 37°F 3°C / 37°F
Humidity Altimeter Pressure
100% 30.05" Hg 1018 hPa